Time;durP1;ratioP1;P1;durP2;ratioP2;P2;SDS_P1;SDS_P2;PMS_P1;PMS_P2;Temp;Humidity;BMP_temperature;BMP_pressure;BME280_temperature;BME280_humidity;BME280_pressure;Samples;Min_cycle;Max_cycle;Signal;HPM_P1;HPM_P2
2021/08/02 00:01:29;;;;;;;4.00;3.10;;;16.30;93.90;;;;;;5019957;28;20252;-81
2021/08/02 00:04:01;;;;;;;3.80;3.50;;;16.30;94.30;;;;;;5020439;28;20484;-81
2021/08/02 00:06:36;;;;;;;5.47;3.67;;;16.30;95.60;;;;;;5031871;28;20489;-80
2021/08/02 00:09:05;;;;;;;3.37;2.60;;;16.30;96.60;;;;;;5025851;28;20462;-79
2021/08/02 00:11:35;;;;;;;4.27;3.13;;;16.20;97.10;;;;;;5032920;28;20436;-82
2021/08/02 00:14:07;;;;;;;5.60;3.43;;;16.20;97.50;;;;;;5037649;28;20458;-80
2021/08/02 00:16:35;;;;;;;2.90;2.70;;;16.20;98.00;;;;;;5038353;28;20434;-81
2021/08/02 00:19:02;;;;;;;3.77;3.47;;;16.20;97.80;;;;;;5039632;28;20484;-83
2021/08/02 00:21:29;;;;;;;4.00;2.95;;;16.20;97.50;;;;;;5039660;28;20457;-82
2021/08/02 00:23:57;;;;;;;2.73;2.50;;;16.10;97.80;;;;;;5038926;28;20241;-80
2021/08/02 00:26:24;;;;;;;3.20;3.00;;;16.20;97.50;;;;;;5039272;28;20456;-80
2021/08/02 00:28:52;;;;;;;5.03;3.70;;;16.10;97.90;;;;;;5038711;28;20442;-80
2021/08/02 00:31:21;;;;;;;3.07;2.87;;;16.10;98.30;;;;;;5020998;28;20586;-81
2021/08/02 00:33:48;;;;;;;6.93;3.60;;;16.10;98.10;;;;;;5023831;28;20436;-83
2021/08/02 00:36:25;;;;;;;2.73;2.53;;;16.00;97.90;;;;;;5038295;28;20507;-85
2021/08/02 00:39:02;;;;;;;2.60;2.40;;;16.00;97.40;;;;;;5037597;28;20442;-84
2021/08/02 00:42:09;;;;;;;3.00;2.80;;;16.00;97.60;;;;;;5021809;28;20876;-81
2021/08/02 00:45:06;;;;;;;4.03;2.85;;;16.00;97.90;;;;;;4998873;28;20516;-82
2021/08/02 00:47:37;;;;;;;3.15;2.85;;;16.00;97.30;;;;;;4974648;28;20248;-83
2021/08/02 00:50:08;;;;;;;2.60;2.40;;;16.00;96.80;;;;;;5018877;28;20229;-81
2021/08/02 00:52:39;;;;;;;3.33;2.75;;;16.10;96.50;;;;;;5018958;28;20475;-83
2021/08/02 00:55:08;;;;;;;5.20;2.93;;;16.00;96.20;;;;;;5018461;28;20276;-81
2021/08/02 00:57:38;;;;;;;4.88;3.03;;;16.00;96.10;;;;;;5019260;28;20459;-82
2021/08/02 01:00:08;;;;;;;3.57;3.00;;;15.90;95.70;;;;;;5018545;28;20644;-81
2021/08/02 01:02:40;;;;;;;3.17;2.88;;;15.90;96.20;;;;;;5022197;28;20826;-83
2021/08/02 01:05:09;;;;;;;3.40;3.10;;;15.80;96.40;;;;;;5027540;28;20259;-84
2021/08/02 01:07:45;;;;;;;3.42;3.08;;;15.70;96.50;;;;;;5029448;28;20223;-84
2021/08/02 01:10:15;;;;;;;3.78;2.80;;;15.70;96.80;;;;;;5029012;28;20227;-83
2021/08/02 01:12:47;;;;;;;3.17;2.90;;;15.60;97.20;;;;;;5028851;28;20208;-83
2021/08/02 01:15:15;;;;;;;5.32;3.35;;;15.60;98.00;;;;;;5030159;28;20223;-84
2021/08/02 01:17:47;;;;;;;2.55;2.35;;;15.60;98.10;;;;;;5031306;28;20204;-82
2021/08/02 01:20:16;;;;;;;3.65;3.35;;;15.60;98.30;;;;;;5035644;28;20219;-82
2021/08/02 01:22:46;;;;;;;4.25;2.80;;;15.60;97.90;;;;;;5037462;28;20190;-83
2021/08/02 01:25:58;;;;;;;3.35;2.67;;;15.50;97.90;;;;;;5028469;28;20235;-83
2021/08/02 01:29:01;;;;;;;4.88;2.80;;;15.40;98.40;;;;;;4968994;29;20213;-82
2021/08/02 01:31:28;;;;;;;3.05;2.85;;;15.50;98.90;;;;;;4971769;29;20220;-82
2021/08/02 01:33:56;;;;;;;3.35;3.10;;;15.40;98.40;;;;;;4972722;29;20190;-83
2021/08/02 01:36:23;;;;;;;3.33;2.65;;;15.40;98.70;;;;;;4972792;29;20236;-81
2021/08/02 01:38:54;;;;;;;3.70;2.63;;;15.40;98.80;;;;;;4968755;29;20262;-82
2021/08/02 01:41:21;;;;;;;4.60;2.80;;;15.30;98.90;;;;;;4973767;29;20254;-82
2021/08/02 01:43:48;;;;;;;3.40;3.20;;;15.20;98.80;;;;;;4971935;29;20206;-83
2021/08/02 01:46:22;;;;;;;4.15;2.88;;;15.20;99.40;;;;;;4966767;29;20237;-84
2021/08/02 01:48:57;;;;;;;6.03;3.28;;;15.10;99.60;;;;;;4964363;29;20209;-82
2021/08/02 01:51:29;;;;;;;3.60;3.30;;;15.00;99.90;;;;;;4958003;29;20240;-82
2021/08/02 01:54:07;;;;;;;5.35;3.63;;;15.00;99.90;;;;;;4956648;29;20301;-81
2021/08/02 01:56:38;;;;;;;5.38;3.42;;;14.90;99.90;;;;;;4958351;29;20229;-82
2021/08/02 01:59:09;;;;;;;3.63;3.33;;;14.90;99.90;;;;;;4960737;29;20328;-81
2021/08/02 02:01:41;;;;;;;4.82;4.07;;;14.80;99.90;;;;;;4960822;29;20264;-81
2021/08/02 02:04:09;;;;;;;5.70;3.30;;;14.80;99.90;;;;;;4995745;28;20203;-83
2021/08/02 02:06:40;;;;;;;6.90;3.95;;;14.80;99.90;;;;;;5026716;28;20261;-83
2021/08/02 02:09:10;;;;;;;4.22;3.58;;;14.90;99.90;;;;;;5028177;28;20219;-83
2021/08/02 02:11:41;;;;;;;4.53;2.95;;;14.80;99.90;;;;;;5028095;28;20231;-83
2021/08/02 02:14:10;;;;;;;4.95;3.70;;;14.80;99.90;;;;;;5027763;28;20200;-81
2021/08/02 02:16:42;;;;;;;3.58;3.22;;;14.80;99.90;;;;;;5028221;28;20250;-84
2021/08/02 02:19:11;;;;;;;4.75;3.63;;;14.80;99.90;;;;;;5030848;28;20215;-82
2021/08/02 02:21:39;;;;;;;5.03;3.83;;;14.80;99.90;;;;;;5017254;28;20242;-82
2021/08/02 02:24:07;;;;;;;7.65;4.03;;;14.80;99.90;;;;;;5020417;28;20250;-82
2021/08/02 02:26:36;;;;;;;4.25;3.90;;;14.80;99.90;;;;;;5017290;28;20314;-82
2021/08/02 02:29:06;;;;;;;5.00;3.42;;;14.80;99.90;;;;;;5018291;28;20652;-80
2021/08/02 02:31:35;;;;;;;3.72;3.33;;;14.80;99.90;;;;;;5019821;28;20235;-81
2021/08/02 02:34:05;;;;;;;3.70;3.03;;;14.80;99.90;;;;;;5030606;28;20231;-84
2021/08/02 02:36:32;;;;;;;5.07;3.83;;;14.80;99.90;;;;;;5031995;28;20259;-83
2021/08/02 02:39:00;;;;;;;4.15;3.75;;;14.80;99.90;;;;;;5034815;28;20204;-81
2021/08/02 02:41:28;;;;;;;3.55;3.25;;;14.80;99.90;;;;;;5030722;28;20208;-82
2021/08/02 02:43:58;;;;;;;3.90;3.50;;;14.80;99.90;;;;;;5036816;28;20235;-82
2021/08/02 02:46:26;;;;;;;7.20;3.90;;;14.80;99.90;;;;;;5059582;23;20234;-78
2021/08/02 02:48:54;;;;;;;4.75;3.83;;;14.90;99.90;;;;;;5073843;28;20666;-78
2021/08/02 02:51:21;;;;;;;3.70;3.40;;;14.90;99.90;;;;;;5081030;28;20269;-77
2021/08/02 02:53:50;;;;;;;3.92;3.63;;;14.90;99.90;;;;;;5087897;28;20221;-78
2021/08/02 02:56:18;;;;;;;4.40;3.38;;;14.90;99.90;;;;;;5086731;28;20217;-77
2021/08/02 02:58:45;;;;;;;4.20;3.42;;;14.90;99.90;;;;;;5086584;28;20577;-77
2021/08/02 03:01:19;;;;;;;4.05;3.75;;;14.90;99.90;;;;;;5086310;28;20273;-77
2021/08/02 03:03:50;;;;;;;3.85;3.55;;;14.90;99.90;;;;;;5088563;28;20221;-77
2021/08/02 03:06:17;;;;;;;4.05;3.60;;;14.90;99.90;;;;;;5087557;28;20260;-77
2021/08/02 03:08:46;;;;;;;3.85;3.55;;;14.90;99.90;;;;;;5081905;28;20209;-77
2021/08/02 03:11:16;;;;;;;3.95;3.65;;;15.00;99.90;;;;;;5075681;28;20232;-77
2021/08/02 03:13:43;;;;;;;4.18;3.25;;;15.00;99.90;;;;;;5076040;28;20253;-77
2021/08/02 03:16:10;;;;;;;4.25;3.85;;;15.00;99.90;;;;;;5076072;28;20253;-77
2021/08/02 03:18:38;;;;;;;4.07;3.67;;;15.00;99.90;;;;;;5075391;28;20208;-77
2021/08/02 03:21:06;;;;;;;3.75;3.45;;;15.00;99.90;;;;;;5075299;28;20234;-77
2021/08/02 03:23:39;;;;;;;3.70;3.38;;;15.00;99.90;;;;;;5075779;28;20212;-77
2021/08/02 03:26:12;;;;;;;3.63;3.33;;;15.10;99.90;;;;;;5075627;28;20678;-78
2021/08/02 03:28:44;;;;;;;4.10;3.80;;;15.10;99.90;;;;;;5076460;28;20210;-77
2021/08/02 03:31:13;;;;;;;3.80;3.40;;;15.10;99.90;;;;;;5076976;28;20217;-77
2021/08/02 03:33:43;;;;;;;4.18;3.85;;;15.00;99.90;;;;;;5089638;28;20217;-77
2021/08/02 03:36:14;;;;;;;3.40;3.10;;;15.00;99.90;;;;;;5080807;28;20233;-77
2021/08/02 03:38:42;;;;;;;3.80;3.05;;;15.00;99.90;;;;;;5076534;28;20190;-77
2021/08/02 03:41:11;;;;;;;4.05;3.65;;;15.00;99.90;;;;;;5076292;28;20232;-78
2021/08/02 03:43:40;;;;;;;4.00;3.63;;;15.00;99.90;;;;;;5077299;28;20293;-77
2021/08/02 03:46:08;;;;;;;4.43;4.00;;;15.00;99.90;;;;;;5096331;28;20238;-78
2021/08/02 03:48:36;;;;;;;3.60;3.30;;;15.10;99.90;;;;;;5089256;28;20234;-78
2021/08/02 03:51:05;;;;;;;7.38;3.72;;;15.00;99.90;;;;;;5084775;28;20570;-77
2021/08/02 03:53:40;;;;;;;3.90;3.50;;;15.10;99.90;;;;;;5088287;28;20209;-78
2021/08/02 03:56:08;;;;;;;5.68;3.15;;;15.10;99.90;;;;;;5077254;28;20228;-78
2021/08/02 03:58:35;;;;;;;4.07;3.78;;;15.10;99.90;;;;;;5081571;28;20212;-77
2021/08/02 04:01:02;;;;;;;3.65;3.13;;;15.20;99.90;;;;;;5096739;28;20214;-77
2021/08/02 04:03:29;;;;;;;5.55;3.63;;;15.20;99.90;;;;;;5089083;28;20241;-77
2021/08/02 04:05:58;;;;;;;4.15;3.50;;;15.10;99.90;;;;;;5090137;28;20260;-77
2021/08/02 04:08:26;;;;;;;5.88;3.90;;;15.10;99.90;;;;;;5095424;28;20240;-78
2021/08/02 04:10:53;;;;;;;5.13;4.30;;;15.20;99.90;;;;;;5092462;28;20229;-77
2021/08/02 04:13:20;;;;;;;4.90;3.35;;;15.20;99.90;;;;;;5088087;28;20244;-78
2021/08/02 04:15:47;;;;;;;4.10;3.80;;;15.20;99.70;;;;;;5085376;28;20224;-77
2021/08/02 04:18:14;;;;;;;4.80;3.78;;;15.20;99.60;;;;;;5084732;28;20252;-78
2021/08/02 04:20:42;;;;;;;4.13;3.72;;;15.20;99.70;;;;;;5085569;28;20319;-77
2021/08/02 04:23:09;;;;;;;4.10;3.40;;;15.20;99.70;;;;;;5086473;28;20221;-76
2021/08/02 04:25:38;;;;;;;4.40;3.65;;;15.30;99.50;;;;;;5085298;28;20253;-77
2021/08/02 04:28:05;;;;;;;5.00;4.03;;;15.30;99.00;;;;;;5083592;28;20623;-77
2021/08/02 04:30:32;;;;;;;5.55;3.65;;;15.30;99.10;;;;;;5080890;28;20248;-78
2021/08/02 04:32:59;;;;;;;5.57;4.15;;;15.30;98.90;;;;;;5080820;28;20205;-79
2021/08/02 04:35:26;;;;;;;4.70;3.70;;;15.30;98.90;;;;;;5079938;28;20202;-78
2021/08/02 04:37:52;;;;;;;3.95;3.60;;;15.30;98.60;;;;;;5079569;28;20318;-78
2021/08/02 04:40:19;;;;;;;3.70;3.40;;;15.40;98.60;;;;;;5079297;28;20293;-77
2021/08/02 04:42:47;;;;;;;3.67;3.38;;;15.50;98.60;;;;;;5078904;28;20206;-76
2021/08/02 04:45:14;;;;;;;6.15;4.28;;;15.50;97.80;;;;;;5077974;28;20257;-78
2021/08/02 04:47:41;;;;;;;4.22;3.83;;;15.50;97.70;;;;;;5078520;28;20295;-78
2021/08/02 04:50:09;;;;;;;4.50;3.63;;;15.50;97.50;;;;;;5078117;28;20205;-77
2021/08/02 04:52:36;;;;;;;4.73;3.53;;;15.60;97.20;;;;;;5078231;28;20620;-77
2021/08/02 04:55:03;;;;;;;4.10;3.60;;;15.70;97.20;;;;;;5076531;28;20466;-78
2021/08/02 04:57:30;;;;;;;5.05;3.75;;;15.70;96.80;;;;;;5077771;28;20776;-77
2021/08/02 04:59:59;;;;;;;3.92;3.58;;;15.70;95.90;;;;;;5076312;28;20295;-78
2021/08/02 05:02:25;;;;;;;4.05;3.47;;;15.80;95.90;;;;;;5075094;28;20206;-78
2021/08/02 05:04:52;;;;;;;3.35;3.05;;;15.80;95.30;;;;;;5074058;28;20290;-77
2021/08/02 05:07:19;;;;;;;3.67;3.30;;;15.80;95.00;;;;;;5074148;28;20640;-77
2021/08/02 05:09:46;;;;;;;4.10;3.70;;;15.90;95.00;;;;;;5075129;28;20269;-77
2021/08/02 05:12:13;;;;;;;4.38;3.45;;;15.90;94.40;;;;;;5075263;28;20210;-78
2021/08/02 05:14:40;;;;;;;3.78;3.45;;;15.90;93.90;;;;;;5075179;28;20302;-77
2021/08/02 05:17:08;;;;;;;4.88;3.45;;;15.90;93.70;;;;;;5074935;28;20498;-77
2021/08/02 05:19:36;;;;;;;4.07;3.47;;;16.00;93.80;;;;;;5076140;28;20249;-78
2021/08/02 05:22:04;;;;;;;5.03;3.50;;;16.00;93.70;;;;;;5077210;28;20675;-77
2021/08/02 05:24:31;;;;;;;3.90;3.45;;;16.10;93.80;;;;;;5076926;28;20238;-78
2021/08/02 05:26:58;;;;;;;4.53;3.35;;;16.20;92.90;;;;;;5080457;28;20290;-78
2021/08/02 05:29:25;;;;;;;4.43;3.90;;;16.20;92.20;;;;;;5086520;28;20238;-77
2021/08/02 05:31:52;;;;;;;4.57;3.60;;;16.20;92.30;;;;;;5084671;28;20424;-78
2021/08/02 05:34:20;;;;;;;4.25;3.42;;;16.30;92.00;;;;;;5081564;28;20456;-77
2021/08/02 05:36:47;;;;;;;5.55;3.83;;;16.40;91.40;;;;;;5078348;28;20247;-78
2021/08/02 05:39:14;;;;;;;3.53;3.23;;;16.40;91.00;;;;;;5088923;28;20203;-76
2021/08/02 05:41:41;;;;;;;3.17;2.97;;;16.40;91.00;;;;;;5089319;28;20463;-77
2021/08/02 05:44:08;;;;;;;4.03;3.53;;;16.50;90.70;;;;;;5084185;28;20489;-76
2021/08/02 05:46:35;;;;;;;3.80;2.90;;;16.50;90.60;;;;;;5067766;28;20490;-76
2021/08/02 05:49:02;;;;;;;3.33;3.03;;;16.50;90.40;;;;;;5070151;28;20972;-76
2021/08/02 05:51:30;;;;;;;5.23;3.60;;;16.60;90.30;;;;;;5073973;28;20477;-75
2021/08/02 05:53:57;;;;;;;6.30;3.53;;;16.70;90.00;;;;;;5074255;28;20461;-76
2021/08/02 05:56:24;;;;;;;4.40;3.23;;;16.70;89.90;;;;;;5074969;28;20502;-76
2021/08/02 05:58:51;;;;;;;5.87;4.07;;;16.80;89.30;;;;;;5075646;28;20526;-76
2021/08/02 06:01:18;;;;;;;3.47;3.13;;;16.90;87.60;;;;;;5078031;28;20481;-76
2021/08/02 06:03:45;;;;;;;3.20;2.90;;;17.00;86.40;;;;;;5080776;28;20466;-76
2021/08/02 06:06:13;;;;;;;3.77;3.23;;;17.00;85.30;;;;;;5077337;28;20653;-76
2021/08/02 06:08:41;;;;;;;3.30;2.90;;;17.10;84.40;;;;;;5074298;28;20474;-77
2021/08/02 06:11:08;;;;;;;3.13;2.80;;;17.10;82.80;;;;;;5047551;28;20459;-76
2021/08/02 06:13:35;;;;;;;4.27;3.33;;;17.20;81.90;;;;;;5069153;28;20938;-75
2021/08/02 06:16:03;;;;;;;5.00;3.30;;;17.30;81.50;;;;;;5074760;28;20533;-77
2021/08/02 06:18:33;;;;;;;3.50;3.20;;;17.40;80.90;;;;;;5065652;28;20452;-78
2021/08/02 06:21:00;;;;;;;3.90;2.70;;;17.50;80.30;;;;;;5060360;28;20935;-77
2021/08/02 06:23:30;;;;;;;3.50;2.70;;;17.60;79.50;;;;;;5065732;28;20443;-77
2021/08/02 06:26:01;;;;;;;3.27;2.97;;;17.70;77.70;;;;;;5067215;28;20498;-76
2021/08/02 06:28:28;;;;;;;3.60;2.70;;;17.90;78.30;;;;;;5061540;28;20448;-77
2021/08/02 06:30:55;;;;;;;4.20;2.87;;;18.10;75.00;;;;;;5064735;28;20461;-77
2021/08/02 06:33:23;;;;;;;3.13;2.90;;;18.30;73.30;;;;;;5065619;28;20952;-78
2021/08/02 06:35:50;;;;;;;2.47;2.10;;;18.50;70.70;;;;;;5068032;28;20903;-77
2021/08/02 06:38:17;;;;;;;3.20;2.47;;;18.80;68.80;;;;;;5070653;28;20456;-77
2021/08/02 06:40:45;;;;;;;2.93;2.30;;;19.10;67.00;;;;;;5069139;28;20453;-77
2021/08/02 06:43:14;;;;;;;3.47;2.93;;;19.50;64.80;;;;;;5069578;28;20928;-78
2021/08/02 06:45:41;;;;;;;3.60;2.67;;;20.00;62.00;;;;;;5069686;28;20481;-77
2021/08/02 06:48:10;;;;;;;2.93;2.20;;;20.20;58.80;;;;;;5062243;28;20436;-77
2021/08/02 06:50:37;;;;;;;6.70;2.00;;;20.20;59.00;;;;;;5061621;28;20457;-76
2021/08/02 06:53:04;;;;;;;4.07;2.37;;;20.30;60.00;;;;;;5073868;28;20452;-78
2021/08/02 06:55:31;;;;;;;5.00;2.20;;;20.40;59.00;;;;;;5091597;28;20528;-77
2021/08/02 06:57:59;;;;;;;2.77;2.13;;;20.40;59.00;;;;;;5089725;28;20452;-79
2021/08/02 07:00:27;;;;;;;4.20;2.60;;;20.50;59.10;;;;;;5086992;28;20423;-78
2021/08/02 07:02:57;;;;;;;3.00;2.70;;;20.40;59.00;;;;;;5092239;28;20480;-78
2021/08/02 07:05:24;;;;;;;2.83;2.37;;;20.50;59.10;;;;;;5092311;28;20455;-77
2021/08/02 07:07:52;;;;;;;5.80;3.10;;;20.50;59.10;;;;;;5084184;28;20489;-77
2021/08/02 07:10:18;;;;;;;5.07;2.27;;;20.50;59.10;;;;;;5086596;28;20454;-76
2021/08/02 07:12:45;;;;;;;4.53;2.40;;;20.40;57.80;;;;;;5085191;28;20431;-78
2021/08/02 07:15:12;;;;;;;4.40;2.40;;;20.20;57.10;;;;;;5084124;28;20472;-78
2021/08/02 07:17:41;;;;;;;2.73;2.37;;;20.10;58.70;;;;;;5085811;28;20493;-84
2021/08/02 07:20:09;;;;;;;4.37;2.63;;;20.00;58.60;;;;;;5091868;28;20433;-80
2021/08/02 07:22:36;;;;;;;5.60;2.40;;;19.80;58.40;;;;;;5090371;28;20448;-80
2021/08/02 07:25:03;;;;;;;4.03;2.50;;;19.90;58.50;;;;;;5091468;28;20463;-81
2021/08/02 07:27:30;;;;;;;5.43;2.80;;;19.90;58.50;;;;;;5068219;28;20495;-82
2021/08/02 07:29:57;;;;;;;3.90;3.10;;;19.90;58.50;;;;;;5075670;28;20548;-80
2021/08/02 07:32:24;;;;;;;4.30;2.80;;;20.20;58.80;;;;;;5048156;28;20502;-80
2021/08/02 07:34:52;;;;;;;3.00;2.30;;;20.30;58.90;;;;;;5055617;28;20450;-83
2021/08/02 07:37:19;;;;;;;3.50;2.67;;;20.20;57.90;;;;;;5056231;28;20501;-83
2021/08/02 07:39:46;;;;;;;8.83;3.03;;;20.10;58.70;;;;;;5051352;28;20465;-83
2021/08/02 07:42:13;;;;;;;4.83;2.53;;;20.30;58.90;;;;;;5044006;28;20422;-81
2021/08/02 07:44:40;;;;;;;5.60;2.27;;;20.30;57.70;;;;;;5042232;28;20482;-82
2021/08/02 07:47:07;;;;;;;2.67;2.40;;;20.20;58.10;;;;;;5055543;28;20493;-81
2021/08/02 07:49:34;;;;;;;2.40;2.20;;;20.00;58.60;;;;;;5047000;28;20436;-82
2021/08/02 07:52:02;;;;;;;4.80;2.63;;;20.10;58.10;;;;;;5038565;28;20454;-78
2021/08/02 07:54:29;;;;;;;2.33;2.00;;;20.20;57.60;;;;;;5032904;28;20470;-78
2021/08/02 07:56:56;;;;;;;3.00;2.30;;;20.40;57.30;;;;;;5017334;28;20556;-79
2021/08/02 07:59:23;;;;;;;5.13;2.27;;;20.60;55.20;;;;;;5021566;28;20485;-79
2021/08/02 08:01:50;;;;;;;4.30;2.53;;;20.60;55.40;;;;;;5039150;28;20464;-79
2021/08/02 08:04:17;;;;;;;2.80;2.10;;;20.60;55.30;;;;;;5038786;28;20557;-80
2021/08/02 08:06:46;;;;;;;3.03;2.53;;;20.70;55.60;;;;;;5024750;28;20515;-80
2021/08/02 08:09:14;;;;;;;2.37;2.00;;;20.90;54.50;;;;;;5033269;28;20872;-78
2021/08/02 08:11:41;;;;;;;3.33;2.30;;;20.80;53.30;;;;;;5039362;28;20490;-78
2021/08/02 08:14:08;;;;;;;7.83;2.37;;;20.70;55.80;;;;;;5030231;28;20929;-81
2021/08/02 08:16:37;;;;;;;3.07;2.77;;;20.90;54.60;;;;;;5036060;28;20561;-78
2021/08/02 08:19:04;;;;;;;4.03;2.50;;;21.00;53.90;;;;;;5038655;28;20485;-79
2021/08/02 08:21:35;;;;;;;3.27;2.27;;;21.00;53.80;;;;;;5037867;28;20518;-81
2021/08/02 08:24:03;;;;;;;3.80;2.40;;;20.90;53.70;;;;;;5039257;28;20460;-79
2021/08/02 08:26:32;;;;;;;2.30;1.97;;;20.90;54.00;;;;;;5046673;28;20530;-79
2021/08/02 08:28:59;;;;;;;3.00;2.20;;;20.90;53.00;;;;;;5030771;28;20430;-79
2021/08/02 08:31:26;;;;;;;8.10;2.67;;;20.80;53.40;;;;;;5029592;28;20431;-78
2021/08/02 08:33:55;;;;;;;3.37;2.67;;;20.90;51.90;;;;;;5023768;28;20456;-78
2021/08/02 08:36:22;;;;;;;3.20;2.67;;;20.90;51.70;;;;;;5040613;28;20481;-78
2021/08/02 08:38:49;;;;;;;4.53;2.70;;;21.10;50.60;;;;;;5048844;28;20502;-78
2021/08/02 08:41:18;;;;;;;5.87;2.43;;;21.00;50.20;;;;;;5038878;28;20483;-79
2021/08/02 08:43:49;;;;;;;2.60;2.33;;;21.50;50.30;;;;;;5041014;28;20455;-79
2021/08/02 08:46:19;;;;;;;3.47;2.50;;;22.00;49.70;;;;;;5066365;22;20458;-83
2021/08/02 08:48:46;;;;;;;3.40;2.20;;;22.20;47.60;;;;;;5108158;28;20469;-79
2021/08/02 08:51:13;;;;;;;2.97;2.70;;;22.40;47.20;;;;;;5103757;28;20875;-80
2021/08/02 08:53:42;;;;;;;2.40;2.20;;;22.70;46.60;;;;;;5097669;28;20468;-81
2021/08/02 08:56:09;;;;;;;2.50;2.27;;;22.90;45.70;;;;;;5097466;28;20426;-80
2021/08/02 08:58:36;;;;;;;3.47;3.17;;;23.00;45.60;;;;;;5083839;28;20491;-80
2021/08/02 09:01:06;;;;;;;3.63;2.30;;;23.40;44.80;;;;;;5100619;28;20540;-81
2021/08/02 09:03:33;;;;;;;13.77;2.57;;;23.40;43.60;;;;;;5086931;28;20506;-80
2021/08/02 09:06:02;;;;;;;4.20;2.10;;;23.50;43.90;;;;;;5093239;28;20465;-82
2021/08/02 09:08:32;;;;;;;2.53;2.33;;;23.60;44.20;;;;;;5075700;28;20500;-82
2021/08/02 09:11:01;;;;;;;3.13;1.97;;;23.70;42.70;;;;;;5075553;28;20429;-81
2021/08/02 09:13:32;;;;;;;2.50;2.30;;;23.70;43.20;;;;;;5096336;28;20444;-80
2021/08/02 09:16:10;;;;;;;2.83;2.63;;;23.90;42.50;;;;;;5096046;28;20436;-83
2021/08/02 09:18:38;;;;;;;2.40;2.30;;;23.70;42.60;;;;;;5077139;28;20433;-81
2021/08/02 09:21:07;;;;;;;2.57;2.37;;;23.20;43.40;;;;;;5068238;28;20484;-81
2021/08/02 09:23:35;;;;;;;4.30;2.47;;;23.00;44.40;;;;;;5085991;28;20499;-81
2021/08/02 09:26:02;;;;;;;2.43;2.23;;;23.20;43.50;;;;;;5090246;28;20479;-82
2021/08/02 09:28:30;;;;;;;4.17;2.10;;;23.50;43.00;;;;;;5109280;28;20939;-82
2021/08/02 09:30:59;;;;;;;5.23;2.40;;;23.50;42.10;;;;;;5091142;28;20829;-82
2021/08/02 09:33:27;;;;;;;3.90;2.17;;;23.40;42.00;;;;;;5102117;28;20492;-79
2021/08/02 09:36:02;;;;;;;2.03;1.93;;;23.30;41.90;;;;;;5106647;28;20455;-81
2021/08/02 09:38:29;;;;;;;3.53;2.10;;;23.30;42.50;;;;;;5110033;28;20921;-80
2021/08/02 09:40:58;;;;;;;2.30;2.20;;;23.40;42.80;;;;;;5111038;28;20459;-83
2021/08/02 09:43:26;;;;;;;3.33;2.43;;;23.30;42.90;;;;;;5107034;28;20495;-80
2021/08/02 09:45:56;;;;;;;4.23;2.20;;;23.70;42.30;;;;;;5106743;28;20483;-80
2021/08/02 09:48:35;;;;;;;2.70;2.30;;;23.80;41.20;;;;;;5091434;28;20518;-81
2021/08/02 09:51:10;;;;;;;6.03;4.67;;;23.50;41.30;;;;;;5095945;28;20454;-84
2021/08/02 09:53:39;;;;;;;3.53;2.67;;;23.20;41.80;;;;;;5094130;28;20432;-80
2021/08/02 09:56:07;;;;;;;3.80;2.87;;;23.30;41.90;;;;;;5089437;28;20806;-81
2021/08/02 09:58:36;;;;;;;2.60;2.13;;;23.50;42.10;;;;;;5086215;28;20418;-82
2021/08/02 10:01:03;;;;;;;2.60;2.40;;;23.80;41.00;;;;;;5082202;28;20427;-82
2021/08/02 10:03:31;;;;;;;2.20;2.10;;;23.90;40.00;;;;;;5083128;28;20461;-80
2021/08/02 10:05:59;;;;;;;2.47;2.27;;;23.70;43.00;;;;;;5086172;28;20460;-79
2021/08/02 10:08:29;;;;;;;3.07;2.27;;;23.40;42.00;;;;;;5081155;28;20515;-79
2021/08/02 10:10:57;;;;;;;3.20;2.87;;;23.80;41.80;;;;;;5093745;28;20438;-80
2021/08/02 10:13:25;;;;;;;4.03;2.57;;;23.90;41.80;;;;;;5092354;28;20453;-83
2021/08/02 10:15:53;;;;;;;2.53;2.23;;;23.80;41.80;;;;;;5076693;28;20483;-80
2021/08/02 10:18:21;;;;;;;3.10;2.80;;;23.60;42.20;;;;;;5074028;28;20532;-83
2021/08/02 10:20:50;;;;;;;7.43;6.13;;;23.70;41.40;;;;;;5074796;28;20791;-79
2021/08/02 10:23:24;;;;;;;3.97;2.40;;;24.00;40.40;;;;;;5074198;28;20535;-81
2021/08/02 10:25:53;;;;;;;2.87;2.60;;;24.20;40.30;;;;;;5073960;28;20486;-81
2021/08/02 10:28:20;;;;;;;2.90;2.60;;;24.30;39.80;;;;;;5070050;28;20494;-80
2021/08/02 10:30:49;;;;;;;2.43;2.23;;;24.20;39.60;;;;;;5073895;28;20597;-80
2021/08/02 10:33:16;;;;;;;2.77;2.00;;;24.00;40.40;;;;;;5070115;28;20479;-80
2021/08/02 10:35:46;;;;;;;2.50;2.30;;;24.10;39.70;;;;;;5066390;28;20458;-80
2021/08/02 10:38:14;;;;;;;2.37;2.17;;;24.30;40.00;;;;;;5077515;28;20498;-79
2021/08/02 10:40:54;;;;;;;2.27;2.07;;;24.60;39.10;;;;;;5085163;28;20456;-78
2021/08/02 10:43:32;;;;;;;3.53;2.50;;;24.30;38.50;;;;;;5081829;28;20519;-79
2021/08/02 10:46:01;;;;;;;3.93;1.90;;;23.70;39.00;;;;;;5080318;28;20477;-79
2021/08/02 10:48:29;;;;;;;3.37;2.23;;;23.50;38.40;;;;;;5085030;28;20511;-79
2021/08/02 10:50:57;;;;;;;2.63;2.10;;;23.80;39.00;;;;;;5069718;28;20908;-80
2021/08/02 10:53:24;;;;;;;2.63;1.97;;;23.70;39.10;;;;;;5063273;28;20543;-79
2021/08/02 10:55:54;;;;;;;2.00;1.80;;;23.20;41.20;;;;;;5063575;28;20441;-79
2021/08/02 10:58:32;;;;;;;4.13;2.20;;;23.20;41.10;;;;;;5069300;28;20461;-80
2021/08/02 11:01:01;;;;;;;3.10;2.03;;;23.40;40.90;;;;;;5067437;28;20465;-81
2021/08/02 11:03:33;;;;;;;2.67;2.47;;;23.60;40.20;;;;;;5073340;28;20458;-81
2021/08/02 11:06:09;;;;;;;1.73;1.63;;;23.70;39.80;;;;;;5063871;28;20441;-81
2021/08/02 11:08:45;;;;;;;2.73;2.30;;;23.60;38.70;;;;;;5067553;28;20476;-79
2021/08/02 11:11:28;;;;;;;6.03;1.87;;;23.60;39.00;;;;;;5084061;28;20455;-79
2021/08/02 11:14:06;;;;;;;2.87;1.93;;;23.60;38.50;;;;;;5079618;28;20475;-80
2021/08/02 11:16:41;;;;;;;5.70;1.87;;;23.50;40.10;;;;;;5063098;28;20435;-80
2021/08/02 11:19:20;;;;;;;2.30;1.67;;;23.50;37.60;;;;;;5064803;28;20472;-80
2021/08/02 11:21:47;;;;;;;2.10;1.83;;;23.60;37.50;;;;;;5070419;28;20468;-80
2021/08/02 11:24:15;;;;;;;1.63;1.53;;;23.80;37.10;;;;;;5084060;28;20936;-79
2021/08/02 11:26:54;;;;;;;2.10;1.43;;;23.80;37.20;;;;;;5081573;28;20510;-79
2021/08/02 11:29:22;;;;;;;5.40;1.80;;;23.40;38.00;;;;;;5088622;28;20483;-79
2021/08/02 11:32:00;;;;;;;3.57;1.90;;;23.30;39.10;;;;;;5084472;28;20484;-80
2021/08/02 11:34:28;;;;;;;2.30;2.00;;;23.20;40.70;;;;;;5087898;28;20447;-80
2021/08/02 11:37:00;;;;;;;3.50;2.00;;;23.10;41.70;;;;;;5093227;28;20643;-81
2021/08/02 11:39:27;;;;;;;2.33;1.70;;;23.00;41.60;;;;;;5093370;28;20447;-81
2021/08/02 11:42:07;;;;;;;2.07;1.87;;;23.10;41.70;;;;;;5093411;28;20446;-81
2021/08/02 11:44:36;;;;;;;2.50;2.00;;;23.00;41.60;;;;;;5092974;28;20489;-80
2021/08/02 11:47:05;;;;;;;1.70;1.60;;;22.80;41.40;;;;;;5094417;28;20490;-81
2021/08/02 11:49:35;;;;;;;1.57;1.47;;;22.60;41.20;;;;;;5096108;28;20423;-80
2021/08/02 11:52:02;;;;;;;2.43;1.83;;;22.50;41.10;;;;;;5094436;28;20433;-79
2021/08/02 11:54:30;;;;;;;3.03;1.70;;;22.50;41.10;;;;;;5081247;28;20491;-80
2021/08/02 11:56:56;;;;;;;1.60;1.50;;;22.80;41.40;;;;;;5077865;28;20967;-77
2021/08/02 11:59:26;;;;;;;1.43;1.33;;;23.10;37.20;;;;;;5075566;28;20904;-78
2021/08/02 12:01:56;;;;;;;2.90;1.80;;;22.80;38.90;;;;;;5077246;28;20413;-78
2021/08/02 12:04:24;;;;;;;1.30;1.20;;;22.70;40.60;;;;;;5081119;28;20448;-78
2021/08/02 12:06:53;;;;;;;1.90;1.60;;;22.80;41.40;;;;;;5085771;28;20474;-80
2021/08/02 12:09:33;;;;;;;1.20;1.10;;;23.00;39.30;;;;;;5078228;28;21030;-80
2021/08/02 12:12:01;;;;;;;1.43;1.10;;;23.20;33.70;;;;;;5076143;28;20467;-79
2021/08/02 12:14:31;;;;;;;1.27;1.17;;;23.10;33.90;;;;;;5077037;28;20546;-82
2021/08/02 12:17:06;;;;;;;2.00;1.27;;;23.00;34.40;;;;;;5076424;28;20491;-78
2021/08/02 12:19:47;;;;;;;1.40;1.20;;;23.20;34.40;;;;;;5077007;28;20479;-78
2021/08/02 12:22:15;;;;;;;1.50;1.40;;;23.20;34.80;;;;;;5074908;28;20434;-77
2021/08/02 12:24:50;;;;;;;2.47;1.30;;;23.30;35.70;;;;;;5076001;28;20457;-79
2021/08/02 12:27:18;;;;;;;1.83;1.23;;;23.50;35.10;;;;;;5075990;28;20806;-79
2021/08/02 12:29:56;;;;;;;1.53;1.30;;;23.50;36.00;;;;;;5078398;28;20426;-79
2021/08/02 12:32:38;;;;;;;2.07;1.20;;;23.80;35.00;;;;;;5094669;28;20480;-82
2021/08/02 12:35:09;;;;;;;1.30;1.20;;;24.10;32.60;;;;;;5093192;28;20944;-78
2021/08/02 12:37:36;;;;;;;3.13;1.10;;;24.10;32.30;;;;;;5078801;28;20518;-79
2021/08/02 12:40:08;;;;;;;1.90;1.40;;;24.00;34.00;;;;;;5077166;28;20795;-79
2021/08/02 12:42:36;;;;;;;3.73;1.90;;;24.30;34.20;;;;;;5077322;28;20486;-79
2021/08/02 12:45:06;;;;;;;3.47;1.63;;;24.30;34.50;;;;;;5078196;28;20475;-79
2021/08/02 12:47:33;;;;;;;2.10;1.20;;;24.20;35.10;;;;;;5081615;28;22324;-82
2021/08/02 12:50:00;;;;;;;1.80;1.50;;;24.00;35.60;;;;;;5097138;28;20463;-81
2021/08/02 12:52:30;;;;;;;1.50;1.40;;;24.00;36.50;;;;;;5094634;28;20456;-80
2021/08/02 12:54:59;;;;;;;1.83;1.73;;;24.10;35.40;;;;;;5087676;28;20439;-78
2021/08/02 12:57:27;;;;;;;1.50;1.40;;;24.20;36.40;;;;;;5086942;28;20477;-79
2021/08/02 12:59:57;;;;;;;1.27;1.23;;;24.40;35.50;;;;;;5090641;28;20477;-80